Terminal Aerodrome Forecast
Issued by NWS Tampa Bay Area, FL

Home | Current Version | Previous Version | Text Only | Print | Product List | Glossary On
Versions: 1 2 3 4 5 6 7 8 9 10 11 12 13 14 15 16 17
000
FTUS42 KTBW 212323
TAFSRQ
TAF
KSRQ 212323Z 2200/2224 17008KT P6SM SCT050 BKN250
     FM220200 15007KT P6SM SCT045 BKN120 BKN200
     FM221000 14011KT P6SM SHRA BKN030 OVC100
     FM221300 15011KT 5SM TSRA BKN020CB OVC050
     FM222100 11007KT 5SM SHRA VCTS BKN020CB OVC050=

USA.gov is the U.S. government's official web portal to all federal, state and local government web resources and services.